Time;durP1;ratioP1;P1;durP2;ratioP2;P2;SDS_P1;SDS_P2;PMS_P1;PMS_P2;Temp;Humidity;BMP_temperature;BMP_pressure;BME280_temperature;BME280_humidity;BME280_pressure;Samples;Min_cycle;Max_cycle;Signal;HPM_P1;HPM_P2
2021/12/28 00:01:30;;;;;;;35.25;21.10;;;;;;;;;;5099586;28;20030;-77
2021/12/28 00:03:56;;;;;;;33.13;22.63;;;;;;;;;;5112185;27;20035;-76
2021/12/28 00:06:22;;;;;;;36.22;23.17;;;;;;;;;;5100781;28;20028;-77
2021/12/28 00:08:49;;;;;;;33.25;22.02;;;;;;;;;;5095343;28;20032;-77
2021/12/28 00:11:15;;;;;;;31.95;22.30;;;;;;;;;;5085092;28;20131;-77
2021/12/28 00:13:43;;;;;;;37.88;24.05;;;;;;;;;;5096115;28;20034;-76
2021/12/28 00:16:29;;;;;;;32.55;22.65;;;;;;;;;;5107490;28;20115;-76
2021/12/28 00:18:56;;;;;;;39.30;25.23;;;;;;;;;;5099691;28;20023;-77
2021/12/28 00:21:23;;;;;;;44.10;27.83;;;;;;;;;;5104833;28;21101;-76
2021/12/28 00:23:49;;;;;;;45.15;28.00;;;;;;;;;;5103637;28;20034;-76
2021/12/28 00:26:15;;;;;;;49.75;28.25;;;;;;;;;;5085895;28;20043;-77
2021/12/28 00:28:42;;;;;;;51.10;28.88;;;;;;;;;;5091962;28;20119;-76
2021/12/28 00:31:11;;;;;;;46.88;28.75;;;;;;;;;;5098884;28;20043;-76
2021/12/28 00:33:37;;;;;;;45.63;28.52;;;;;;;;;;5099970;28;20020;-76
2021/12/28 00:36:04;;;;;;;50.00;29.45;;;;;;;;;;5085842;28;20580;-76
2021/12/28 00:38:31;;;;;;;56.80;32.60;;;;;;;;;;5097356;28;20078;-76
2021/12/28 00:40:58;;;;;;;52.47;31.15;;;;;;;;;;5105388;28;20040;-77
2021/12/28 00:43:25;;;;;;;57.13;31.73;;;;;;;;;;5101681;28;20036;-77
2021/12/28 00:45:51;;;;;;;52.85;31.63;;;;;;;;;;5104228;28;20077;-78
2021/12/28 00:48:17;;;;;;;61.80;33.47;;;;;;;;;;5094078;28;20064;-78
2021/12/28 00:50:43;;;;;;;59.70;33.35;;;;;;;;;;5097077;28;20051;-78
2021/12/28 00:53:10;;;;;;;68.53;34.92;;;;;;;;;;5108662;28;20431;-78
2021/12/28 00:55:36;;;;;;;68.10;34.65;;;;;;;;;;5103708;28;20102;-78
2021/12/28 00:58:03;;;;;;;63.78;34.55;;;;;;;;;;5104595;28;20111;-78
2021/12/28 01:00:31;;;;;;;61.63;35.17;;;;;;;;;;5102570;28;20446;-77
2021/12/28 01:02:58;;;;;;;72.32;35.88;;;;;;;;;;5094011;28;20426;-77
2021/12/28 01:05:24;;;;;;;70.97;35.35;;;;;;;;;;5099478;28;20077;-78
2021/12/28 01:07:50;;;;;;;72.05;35.50;;;;;;;;;;5107532;28;20466;-78
2021/12/28 01:10:19;;;;;;;66.47;34.53;;;;;;;;;;5103598;28;20036;-78
2021/12/28 01:12:46;;;;;;;78.57;35.72;;;;;;;;;;5105176;28;20099;-78
2021/12/28 01:15:13;;;;;;;75.97;34.95;;;;;;;;;;5107643;28;20108;-78
2021/12/28 01:17:39;;;;;;;77.32;35.97;;;;;;;;;;5108070;28;20059;-78
2021/12/28 01:20:06;;;;;;;79.93;37.35;;;;;;;;;;5108541;28;20119;-78
2021/12/28 01:22:33;;;;;;;64.80;34.20;;;;;;;;;;5100785;28;20432;-78
2021/12/28 01:24:59;;;;;;;126.25;38.40;;;;;;;;;;5111966;28;20044;-78
2021/12/28 01:27:25;;;;;;;116.38;40.08;;;;;;;;;;5106607;28;20081;-78
2021/12/28 01:29:51;;;;;;;91.90;38.38;;;;;;;;;;5109380;28;20084;-77
2021/12/28 01:32:17;;;;;;;86.78;37.22;;;;;;;;;;5102140;28;20379;-76
2021/12/28 01:34:44;;;;;;;100.88;38.20;;;;;;;;;;5088214;28;20038;-77
2021/12/28 01:37:10;;;;;;;135.45;43.90;;;;;;;;;;5098705;28;20046;-77
2021/12/28 01:39:36;;;;;;;112.35;44.17;;;;;;;;;;5107952;28;20539;-77
2021/12/28 01:42:05;;;;;;;101.13;38.30;;;;;;;;;;5088532;28;20057;-77
2021/12/28 01:44:32;;;;;;;125.05;43.70;;;;;;;;;;5106068;28;20063;-77
2021/12/28 01:46:58;;;;;;;118.22;41.53;;;;;;;;;;5088970;28;20101;-77
2021/12/28 01:49:24;;;;;;;117.28;39.92;;;;;;;;;;5091773;28;20497;-77
2021/12/28 01:51:50;;;;;;;84.47;36.25;;;;;;;;;;5103539;28;20036;-77
2021/12/28 01:54:16;;;;;;;92.38;37.65;;;;;;;;;;5108955;28;20477;-77
2021/12/28 01:56:44;;;;;;;113.72;40.28;;;;;;;;;;5107593;28;20505;-76
2021/12/28 01:59:11;;;;;;;149.23;43.47;;;;;;;;;;5107221;28;20129;-77
2021/12/28 02:01:38;;;;;;;149.13;42.75;;;;;;;;;;5100421;28;20110;-76
2021/12/28 02:04:12;;;;;;;131.23;42.55;;;;;;;;;;5107978;27;20059;-76
2021/12/28 02:06:38;;;;;;;118.40;39.63;;;;;;;;;;5090783;28;20027;-77
2021/12/28 02:09:05;;;;;;;106.65;38.85;;;;;;;;;;5081809;28;20039;-77
2021/12/28 02:11:31;;;;;;;190.13;42.17;;;;;;;;;;5093629;28;20027;-77
2021/12/28 02:13:58;;;;;;;135.63;40.75;;;;;;;;;;5096156;28;20482;-76
2021/12/28 02:16:24;;;;;;;114.93;39.38;;;;;;;;;;5098827;28;20031;-77
2021/12/28 02:18:50;;;;;;;223.68;45.38;;;;;;;;;;5105811;28;20094;-77
2021/12/28 02:21:16;;;;;;;141.95;42.85;;;;;;;;;;5099995;28;20027;-77
2021/12/28 02:23:42;;;;;;;103.63;39.65;;;;;;;;;;5106455;28;20068;-77
2021/12/28 02:26:09;;;;;;;123.35;41.13;;;;;;;;;;5087975;28;20388;-74
2021/12/28 02:28:35;;;;;;;139.20;42.55;;;;;;;;;;5103577;28;20485;-74
2021/12/28 02:31:02;;;;;;;130.85;42.08;;;;;;;;;;5101067;28;20161;-77
2021/12/28 02:33:28;;;;;;;123.88;41.85;;;;;;;;;;5102572;27;20031;-77
2021/12/28 02:35:56;;;;;;;133.40;41.97;;;;;;;;;;5095125;28;20110;-77
2021/12/28 02:38:22;;;;;;;152.05;43.53;;;;;;;;;;5109522;28;20070;-77
2021/12/28 02:40:48;;;;;;;126.72;42.03;;;;;;;;;;5101511;28;20024;-76
2021/12/28 02:43:15;;;;;;;133.82;40.63;;;;;;;;;;5077288;28;20024;-75
2021/12/28 02:45:47;;;;;;;132.00;41.95;;;;;;;;;;5099801;28;20058;-76
2021/12/28 02:48:13;;;;;;;150.90;43.08;;;;;;;;;;5095993;28;20054;-76
2021/12/28 02:50:44;;;;;;;129.15;41.83;;;;;;;;;;5103634;28;20055;-76
2021/12/28 02:53:11;;;;;;;134.60;43.25;;;;;;;;;;5101042;27;20469;-77
2021/12/28 02:55:38;;;;;;;128.60;39.65;;;;;;;;;;5103217;28;20028;-78
2021/12/28 02:58:06;;;;;;;118.82;39.70;;;;;;;;;;5104840;28;20019;-76
2021/12/28 03:00:53;;;;;;;136.13;41.65;;;;;;;;;;5098163;28;20129;-77
2021/12/28 03:03:20;;;;;;;146.35;42.92;;;;;;;;;;5104700;28;20024;-76
2021/12/28 03:05:51;;;;;;;145.38;42.22;;;;;;;;;;5097347;28;20028;-76
2021/12/28 03:08:19;;;;;;;133.18;39.97;;;;;;;;;;5101089;28;20020;-76
2021/12/28 03:10:46;;;;;;;115.15;39.25;;;;;;;;;;5109450;27;20538;-76
2021/12/28 03:13:23;;;;;;;127.82;41.42;;;;;;;;;;5107115;28;20768;-76
2021/12/28 03:15:49;;;;;;;115.95;39.35;;;;;;;;;;5107387;28;20024;-76
2021/12/28 03:18:15;;;;;;;107.25;41.75;;;;;;;;;;5098936;28;20107;-76
2021/12/28 03:20:41;;;;;;;136.07;40.58;;;;;;;;;;5096941;28;20035;-76
2021/12/28 03:23:07;;;;;;;111.75;38.85;;;;;;;;;;5103086;28;20480;-76
2021/12/28 03:25:34;;;;;;;124.88;39.92;;;;;;;;;;5108277;28;20024;-76
2021/12/28 03:28:01;;;;;;;136.50;40.03;;;;;;;;;;5098145;27;20040;-76
2021/12/28 03:30:27;;;;;;;114.88;38.83;;;;;;;;;;5097405;28;20027;-76
2021/12/28 03:32:53;;;;;;;125.38;38.63;;;;;;;;;;5085618;28;20140;-76
2021/12/28 03:35:19;;;;;;;103.80;34.83;;;;;;;;;;5101929;28;20068;-76
2021/12/28 03:37:45;;;;;;;115.13;37.00;;;;;;;;;;5107681;28;21318;-77
2021/12/28 03:40:13;;;;;;;109.03;38.28;;;;;;;;;;5087788;28;20066;-77
2021/12/28 03:42:39;;;;;;;123.40;39.08;;;;;;;;;;5098685;28;20072;-76
2021/12/28 03:45:06;;;;;;;103.93;36.80;;;;;;;;;;5106629;28;20055;-76
2021/12/28 03:47:32;;;;;;;122.85;38.78;;;;;;;;;;5090712;28;20092;-76
2021/12/28 03:49:58;;;;;;;124.75;38.97;;;;;;;;;;5088738;28;20028;-75
2021/12/28 03:52:24;;;;;;;116.70;37.15;;;;;;;;;;5089011;28;20488;-76
2021/12/28 03:54:50;;;;;;;114.57;38.50;;;;;;;;;;5103770;28;20043;-76
2021/12/28 03:57:16;;;;;;;103.78;35.03;;;;;;;;;;5109990;28;20477;-76
2021/12/28 03:59:42;;;;;;;106.05;36.25;;;;;;;;;;5100320;28;20062;-77
2021/12/28 04:02:08;;;;;;;126.88;37.38;;;;;;;;;;5083156;28;20040;-77
2021/12/28 04:04:34;;;;;;;120.13;36.97;;;;;;;;;;5098677;28;20032;-77
2021/12/28 04:07:05;;;;;;;113.28;36.75;;;;;;;;;;5085799;28;20032;-77
2021/12/28 04:12:32;;;;;;;121.70;34.58;;;;;;;;;;5025311;28;20053;-77
2021/12/28 04:14:59;;;;;;;112.45;35.92;;;;;;;;;;5053549;28;20040;-77
2021/12/28 04:17:26;;;;;;;101.85;34.90;;;;;;;;;;5099013;28;20042;-77
2021/12/28 04:19:52;;;;;;;118.20;36.08;;;;;;;;;;5094410;28;20386;-77
2021/12/28 04:22:18;;;;;;;121.03;35.80;;;;;;;;;;5102650;28;20024;-77
2021/12/28 04:24:44;;;;;;;98.00;33.90;;;;;;;;;;5099196;28;20063;-77
2021/12/28 04:27:10;;;;;;;97.20;33.78;;;;;;;;;;5082391;28;20028;-77
2021/12/28 04:29:36;;;;;;;111.60;34.53;;;;;;;;;;5103885;28;20424;-77
2021/12/28 04:32:02;;;;;;;104.20;33.05;;;;;;;;;;5096971;28;20052;-77
2021/12/28 04:34:31;;;;;;;96.22;33.25;;;;;;;;;;5095846;28;20037;-77
2021/12/28 04:36:57;;;;;;;109.38;33.75;;;;;;;;;;5095240;28;20103;-77
2021/12/28 04:39:23;;;;;;;90.53;32.20;;;;;;;;;;5087484;28;20032;-77
2021/12/28 04:41:49;;;;;;;89.35;30.20;;;;;;;;;;5105605;28;20133;-77
2021/12/28 04:44:22;;;;;;;92.03;30.83;;;;;;;;;;5103874;28;20115;-77
2021/12/28 04:46:48;;;;;;;83.82;29.02;;;;;;;;;;5106667;28;20145;-77
2021/12/28 04:49:16;;;;;;;91.28;29.65;;;;;;;;;;5083442;28;20110;-76
2021/12/28 04:51:42;;;;;;;97.30;31.35;;;;;;;;;;5098600;28;20051;-78
2021/12/28 04:54:12;;;;;;;73.55;29.75;;;;;;;;;;5110405;28;20031;-78
2021/12/28 04:56:38;;;;;;;80.68;30.13;;;;;;;;;;5092245;28;20028;-78
2021/12/28 04:59:04;;;;;;;76.15;27.92;;;;;;;;;;5101347;28;20063;-77
2021/12/28 05:01:30;;;;;;;92.50;30.35;;;;;;;;;;5106988;28;20028;-76
2021/12/28 05:03:56;;;;;;;81.10;28.33;;;;;;;;;;5114392;28;20438;-77
2021/12/28 05:06:22;;;;;;;74.10;28.95;;;;;;;;;;5106650;28;20047;-77
2021/12/28 05:08:48;;;;;;;77.90;28.05;;;;;;;;;;5107086;28;20039;-77
2021/12/28 05:11:14;;;;;;;71.18;27.33;;;;;;;;;;5103242;28;20062;-77
2021/12/28 05:13:41;;;;;;;73.70;26.30;;;;;;;;;;5109778;28;20035;-76
2021/12/28 05:16:07;;;;;;;77.03;27.52;;;;;;;;;;5104515;28;20496;-77
2021/12/28 05:18:33;;;;;;;69.75;27.45;;;;;;;;;;5085511;28;20278;-75
2021/12/28 05:20:59;;;;;;;70.00;26.38;;;;;;;;;;5074054;28;20038;-78
2021/12/28 05:23:25;;;;;;;81.32;28.25;;;;;;;;;;5099734;28;20039;-77
2021/12/28 05:25:51;;;;;;;79.38;27.35;;;;;;;;;;5102789;28;20115;-77
2021/12/28 05:28:17;;;;;;;69.93;26.20;;;;;;;;;;5098111;28;20112;-76
2021/12/28 05:30:43;;;;;;;100.90;48.33;;;;;;;;;;5085334;28;20449;-77
2021/12/28 05:33:09;;;;;;;64.93;26.40;;;;;;;;;;5083469;28;20047;-77
2021/12/28 05:35:35;;;;;;;65.78;26.98;;;;;;;;;;5097592;28;20484;-77
2021/12/28 05:38:01;;;;;;;66.18;24.95;;;;;;;;;;5105212;28;20230;-77
2021/12/28 05:40:27;;;;;;;59.85;23.45;;;;;;;;;;5108316;27;20043;-77
2021/12/28 05:42:53;;;;;;;64.68;25.73;;;;;;;;;;5117972;27;20028;-77
2021/12/28 05:45:19;;;;;;;64.38;25.50;;;;;;;;;;5101616;27;20039;-77
2021/12/28 05:47:45;;;;;;;55.78;25.33;;;;;;;;;;5088819;28;20027;-77
2021/12/28 05:50:11;;;;;;;53.90;24.00;;;;;;;;;;5100798;28;20085;-76
2021/12/28 05:52:38;;;;;;;59.30;24.98;;;;;;;;;;5072935;28;20032;-77
2021/12/28 05:55:05;;;;;;;60.33;24.80;;;;;;;;;;5083507;28;20027;-77
2021/12/28 05:57:31;;;;;;;54.40;26.42;;;;;;;;;;5088030;28;20030;-76
2021/12/28 05:59:57;;;;;;;60.22;24.92;;;;;;;;;;5082095;27;20015;-77
2021/12/28 06:02:23;;;;;;;57.17;24.63;;;;;;;;;;5082095;28;20040;-77
2021/12/28 06:04:49;;;;;;;53.53;24.52;;;;;;;;;;5089431;28;20039;-77
2021/12/28 06:07:15;;;;;;;52.58;21.88;;;;;;;;;;5103179;28;20401;-77
2021/12/28 06:09:41;;;;;;;66.13;29.67;;;;;;;;;;5089845;28;20481;-77
2021/12/28 06:12:08;;;;;;;223.52;119.32;;;;;;;;;;5082735;28;20029;-76
2021/12/28 06:14:34;;;;;;;68.32;33.90;;;;;;;;;;5090850;28;20036;-77
2021/12/28 06:17:00;;;;;;;50.78;23.20;;;;;;;;;;5084699;27;20042;-77
2021/12/28 06:19:26;;;;;;;54.88;22.77;;;;;;;;;;5102915;28;20028;-76
2021/12/28 06:21:52;;;;;;;59.15;22.63;;;;;;;;;;5104626;28;20126;-76
2021/12/28 06:24:18;;;;;;;48.42;20.02;;;;;;;;;;5104276;28;20154;-76
2021/12/28 06:26:44;;;;;;;55.75;21.10;;;;;;;;;;5103304;28;20031;-76
2021/12/28 06:29:11;;;;;;;59.22;21.90;;;;;;;;;;5098670;28;20036;-76
2021/12/28 06:31:37;;;;;;;41.13;19.73;;;;;;;;;;5091235;28;20047;-76
2021/12/28 06:34:06;;;;;;;48.22;20.30;;;;;;;;;;5099996;28;20023;-76
2021/12/28 06:36:32;;;;;;;59.30;20.30;;;;;;;;;;5098360;28;20119;-76
2021/12/28 06:38:59;;;;;;;43.08;19.85;;;;;;;;;;5094630;28;20044;-76
2021/12/28 06:41:25;;;;;;;50.90;19.10;;;;;;;;;;5095295;28;20150;-76
2021/12/28 06:43:51;;;;;;;44.67;19.77;;;;;;;;;;5099584;28;20115;-76
2021/12/28 06:46:17;;;;;;;50.47;19.80;;;;;;;;;;5097737;28;20031;-75
2021/12/28 06:48:43;;;;;;;74.13;35.20;;;;;;;;;;5097993;28;20028;-76
2021/12/28 06:51:09;;;;;;;46.67;19.30;;;;;;;;;;5084749;28;20401;-74
2021/12/28 06:53:35;;;;;;;37.78;16.20;;;;;;;;;;5088733;28;20051;-76
2021/12/28 06:56:03;;;;;;;35.67;16.77;;;;;;;;;;5103181;28;20028;-73
2021/12/28 06:58:29;;;;;;;33.38;15.50;;;;;;;;;;5108568;28;20019;-74
2021/12/28 07:00:55;;;;;;;43.85;18.05;;;;;;;;;;5097117;28;20038;-74
2021/12/28 07:03:21;;;;;;;31.38;15.13;;;;;;;;;;5082108;28;20105;-74
2021/12/28 07:05:47;;;;;;;43.35;15.85;;;;;;;;;;5074248;28;20478;-73
2021/12/28 07:08:14;;;;;;;41.17;16.08;;;;;;;;;;5080318;27;20031;-74
2021/12/28 07:10:40;;;;;;;38.78;14.02;;;;;;;;;;5099681;28;20035;-74
2021/12/28 07:13:07;;;;;;;35.90;13.55;;;;;;;;;;5096998;28;20431;-73
2021/12/28 07:15:33;;;;;;;35.30;14.60;;;;;;;;;;5088699;28;20072;-74
2021/12/28 07:17:59;;;;;;;43.60;14.07;;;;;;;;;;5087377;28;20107;-73
2021/12/28 07:20:25;;;;;;;38.47;13.68;;;;;;;;;;5096957;28;20116;-73
2021/12/28 07:22:51;;;;;;;38.90;13.93;;;;;;;;;;5099862;28;20103;-73
2021/12/28 07:25:17;;;;;;;31.67;12.40;;;;;;;;;;5104578;27;20536;-73
2021/12/28 07:27:43;;;;;;;37.25;12.55;;;;;;;;;;5102586;28;20476;-74
2021/12/28 07:30:11;;;;;;;34.47;12.77;;;;;;;;;;5107607;28;20450;-73
2021/12/28 07:32:37;;;;;;;32.20;12.25;;;;;;;;;;5099994;28;20375;-74
2021/12/28 07:35:03;;;;;;;34.33;12.30;;;;;;;;;;5091554;28;20381;-73
2021/12/28 07:37:29;;;;;;;29.30;11.57;;;;;;;;;;5096650;28;20024;-74
2021/12/28 07:39:55;;;;;;;25.05;11.00;;;;;;;;;;5100209;28;20038;-74
2021/12/28 07:42:21;;;;;;;26.35;11.18;;;;;;;;;;5108368;27;20037;-74
2021/12/28 07:44:49;;;;;;;32.17;11.60;;;;;;;;;;5113947;27;20040;-74
2021/12/28 07:47:15;;;;;;;28.75;10.38;;;;;;;;;;5085690;28;20401;-74
2021/12/28 07:49:41;;;;;;;30.58;10.60;;;;;;;;;;5086359;28;20413;-73
2021/12/28 07:52:07;;;;;;;28.23;10.77;;;;;;;;;;5099545;28;20038;-73
2021/12/28 07:54:33;;;;;;;27.88;11.15;;;;;;;;;;5090294;28;20038;-74
2021/12/28 07:56:59;;;;;;;28.38;9.63;;;;;;;;;;5091012;28;20032;-74
2021/12/28 07:59:25;;;;;;;30.05;9.43;;;;;;;;;;5096944;28;20601;-72
2021/12/28 08:01:51;;;;;;;28.10;10.57;;;;;;;;;;5093964;28;20043;-73
2021/12/28 08:04:17;;;;;;;27.02;10.15;;;;;;;;;;5086301;28;20081;-75
2021/12/28 08:06:44;;;;;;;40.05;10.10;;;;;;;;;;5089476;28;20142;-74
2021/12/28 08:09:10;;;;;;;23.25;9.18;;;;;;;;;;5087575;28;20051;-74
2021/12/28 08:11:37;;;;;;;27.58;10.20;;;;;;;;;;5107869;28;20702;-74
2021/12/28 08:14:04;;;;;;;30.88;9.98;;;;;;;;;;5103618;28;20068;-74
2021/12/28 08:16:30;;;;;;;26.48;9.32;;;;;;;;;;5106860;28;20099;-74
2021/12/28 08:18:56;;;;;;;28.63;8.75;;;;;;;;;;5096207;28;20028;-74
2021/12/28 08:21:22;;;;;;;34.10;10.48;;;;;;;;;;5094232;28;20552;-75
2021/12/28 08:23:48;;;;;;;38.58;9.43;;;;;;;;;;5107175;28;20039;-73
2021/12/28 08:26:16;;;;;;;31.45;8.55;;;;;;;;;;5103024;28;20032;-73
2021/12/28 08:28:42;;;;;;;31.83;8.32;;;;;;;;;;5068247;28;20181;-73
2021/12/28 08:31:08;;;;;;;27.38;8.10;;;;;;;;;;5096736;28;20393;-73
2021/12/28 08:33:34;;;;;;;31.52;8.57;;;;;;;;;;5087731;28;20043;-73
2021/12/28 08:36:00;;;;;;;28.33;7.80;;;;;;;;;;5101651;28;20035;-73
2021/12/28 08:38:27;;;;;;;22.85;8.68;;;;;;;;;;5092601;28;20051;-74
2021/12/28 08:40:54;;;;;;;38.05;9.63;;;;;;;;;;5101506;28;20035;-73
2021/12/28 08:43:20;;;;;;;29.70;8.60;;;;;;;;;;5097903;28;20465;-74
2021/12/28 08:45:46;;;;;;;24.73;7.60;;;;;;;;;;5102774;28;20406;-74
2021/12/28 08:48:12;;;;;;;28.10;9.20;;;;;;;;;;5099135;28;20040;-74
2021/12/28 08:50:39;;;;;;;20.35;8.52;;;;;;;;;;5104490;28;20435;-76
2021/12/28 08:53:05;;;;;;;29.38;8.07;;;;;;;;;;5082721;28;20048;-74
2021/12/28 08:55:31;;;;;;;27.73;9.40;;;;;;;;;;5097212;28;20020;-73
2021/12/28 08:57:57;;;;;;;29.95;9.43;;;;;;;;;;5102666;28;20032;-74
2021/12/28 09:00:28;;;;;;;24.73;7.97;;;;;;;;;;5086790;28;20042;-74
2021/12/28 09:02:55;;;;;;;24.10;8.73;;;;;;;;;;5088216;28;20050;-74
2021/12/28 09:05:21;;;;;;;31.15;8.98;;;;;;;;;;5109745;28;20046;-75
2021/12/28 09:07:47;;;;;;;31.40;9.00;;;;;;;;;;5083624;28;20119;-74
2021/12/28 09:10:14;;;;;;;27.58;9.20;;;;;;;;;;5109347;28;20032;-73
2021/12/28 09:12:40;;;;;;;28.70;9.05;;;;;;;;;;5082315;28;20032;-74
2021/12/28 09:15:06;;;;;;;29.98;8.25;;;;;;;;;;5107542;28;20026;-74
2021/12/28 09:17:34;;;;;;;22.83;8.63;;;;;;;;;;5104242;28;20032;-74
2021/12/28 09:20:00;;;;;;;22.70;8.18;;;;;;;;;;5107922;28;20031;-74
2021/12/28 09:22:26;;;;;;;61.83;26.58;;;;;;;;;;5095655;28;20032;-74
2021/12/28 09:24:52;;;;;;;41.53;15.43;;;;;;;;;;5078106;28;20061;-75
2021/12/28 09:27:18;;;;;;;23.48;9.13;;;;;;;;;;5101888;28;20063;-74
2021/12/28 09:29:44;;;;;;;32.33;11.45;;;;;;;;;;5086152;28;20051;-74
2021/12/28 09:32:11;;;;;;;35.40;10.00;;;;;;;;;;5113093;27;20044;-73
2021/12/28 09:34:37;;;;;;;36.42;13.20;;;;;;;;;;5106486;28;20024;-74
2021/12/28 09:37:03;;;;;;;33.78;10.07;;;;;;;;;;5105182;28;20445;-74
2021/12/28 09:39:30;;;;;;;30.83;10.27;;;;;;;;;;5101921;28;20493;-74
2021/12/28 09:41:58;;;;;;;25.55;9.45;;;;;;;;;;5103381;27;20716;-74
2021/12/28 09:44:26;;;;;;;24.10;9.75;;;;;;;;;;5107190;28;20067;-74
2021/12/28 09:46:52;;;;;;;27.33;10.48;;;;;;;;;;5099785;28;20028;-74
2021/12/28 09:49:18;;;;;;;30.65;10.02;;;;;;;;;;5103912;28;20024;-73
2021/12/28 09:51:44;;;;;;;25.67;8.93;;;;;;;;;;5108235;28;20401;-73
2021/12/28 09:54:10;;;;;;;21.52;9.00;;;;;;;;;;5103230;28;20028;-74
2021/12/28 09:56:37;;;;;;;28.67;9.60;;;;;;;;;;5102547;28;20032;-74
2021/12/28 09:59:04;;;;;;;24.30;9.40;;;;;;;;;;5105896;28;20024;-74
2021/12/28 10:01:30;;;;;;;28.20;10.05;;;;;;;;;;5104725;28;20027;-75
2021/12/28 10:03:57;;;;;;;19.20;10.52;;;;;;;;;;5104291;28;20489;-75
2021/12/28 10:06:25;;;;;;;30.15;11.77;;;;;;;;;;5101715;28;20061;-76
2021/12/28 10:09:11;;;;;;;31.85;11.57;;;;;;;;;;5108107;28;20043;-76
2021/12/28 10:11:39;;;;;;;29.58;10.57;;;;;;;;;;5107457;28;20026;-77
2021/12/28 10:14:16;;;;;;;28.33;11.48;;;;;;;;;;5103177;28;20385;-76
2021/12/28 10:16:48;;;;;;;29.40;10.63;;;;;;;;;;5091477;28;20143;-76
2021/12/28 10:19:32;;;;;;;27.83;11.23;;;;;;;;;;5095675;28;20115;-77
2021/12/28 10:21:58;;;;;;;27.02;11.52;;;;;;;;;;5099370;28;20036;-78
2021/12/28 10:24:31;;;;;;;29.38;12.27;;;;;;;;;;5107189;28;20040;-76
2021/12/28 10:27:21;;;;;;;36.60;18.00;;;;;;;;;;5104849;28;20039;-76
2021/12/28 10:29:47;;;;;;;33.30;18.38;;;;;;;;;;5095318;28;20051;-77
2021/12/28 10:32:28;;;;;;;28.08;11.95;;;;;;;;;;5108113;28;20068;-77
2021/12/28 10:34:59;;;;;;;20.33;9.93;;;;;;;;;;5104325;28;20026;-76
2021/12/28 10:37:27;;;;;;;27.25;11.35;;;;;;;;;;5105689;28;20031;-76
2021/12/28 10:39:56;;;;;;;23.08;11.75;;;;;;;;;;5103925;28;20028;-76
2021/12/28 10:42:43;;;;;;;27.70;10.95;;;;;;;;;;5093325;28;20026;-77
2021/12/28 10:45:12;;;;;;;20.65;9.73;;;8.40;99.90;;;;;;5104158;28;20028;-77
2021/12/28 10:47:38;;;;;;;20.05;11.23;;;;;;;;;;5102341;28;20044;-76
2021/12/28 10:50:25;;;;;;;22.02;10.40;;;;;;;;;;5094299;28;20088;-75
2021/12/28 10:52:59;;;;;;;20.95;11.25;;;;;;;;;;5087549;28;20037;-76
2021/12/28 10:55:26;;;;;;;20.58;9.93;;;;;;;;;;5106651;28;20122;-76
2021/12/28 10:57:53;;;;;;;26.88;13.85;;;;;;;;;;5089128;28;20386;-76
2021/12/28 11:00:22;;;;;;;14.15;8.88;;;;;;;;;;5107046;28;20389;-76
2021/12/28 11:02:49;;;;;;;13.10;8.80;;;;;;;;;;5100809;28;20032;-75
2021/12/28 11:05:30;;;;;;;14.25;9.20;;;;;;;;;;5097693;28;20392;-76
2021/12/28 11:07:57;;;;;;;17.27;9.40;;;;;;;;;;5102844;28;20039;-75
2021/12/28 11:10:27;;;;;;;16.20;8.63;;;;;;;;;;5086770;28;20508;-75
2021/12/28 11:12:54;;;;;;;14.40;8.98;;;;;;;;;;5104790;28;20084;-76
2021/12/28 11:15:23;;;;;;;16.90;9.90;;;;;;;;;;5099408;27;20076;-75
2021/12/28 11:17:49;;;;;;;16.27;10.52;;;;;;;;;;5103908;28;20115;-76
2021/12/28 11:20:15;;;;;;;17.17;9.63;;;;;;;;;;5105275;28;20024;-75
2021/12/28 11:23:08;;;;;;;16.00;9.95;;;8.60;99.90;;;;;;5107934;28;20118;-73
2021/12/28 11:25:34;;;;;;;15.88;9.85;;;;;;;;;;5089960;28;20027;-75
2021/12/28 11:28:17;;;;;;;12.68;8.73;;;;;;;;;;5095123;28;20032;-75
2021/12/28 11:30:59;;;;;;;13.20;8.65;;;;;;;;;;5103162;28;20031;-75
2021/12/28 11:33:25;;;;;;;13.25;8.60;;;;;;;;;;5104223;28;20035;-75
2021/12/28 11:35:51;;;;;;;15.75;8.20;;;;;;;;;;5109741;28;20043;-75
2021/12/28 11:38:17;;;;;;;13.50;8.98;;;;;;;;;;5101034;28;20040;-75
2021/12/28 11:40:43;;;;;;;14.30;7.78;;;;;;;;;;5108803;28;20038;-75
2021/12/28 11:43:09;;;;;;;13.05;8.98;;;;;;;;;;5103227;28;20032;-75
2021/12/28 11:45:35;;;;;;;10.93;8.40;;;;;;;;;;5079870;28;20073;-75
2021/12/28 11:48:01;;;;;;;9.63;7.65;;;;;;;;;;5099308;28;20470;-75
2021/12/28 11:50:28;;;;;;;17.85;10.00;;;;;;;;;;5096073;28;20094;-76
2021/12/28 11:52:54;;;;;;;20.55;12.23;;;;;;;;;;5105554;28;20036;-76
2021/12/28 11:55:20;;;;;;;15.52;7.93;;;;;;;;;;5091276;28;20038;-73
2021/12/28 11:57:53;;;;;;;12.30;7.22;;;;;;;;;;5101280;28;20511;-74
2021/12/28 12:00:20;;;;;;;;;;;;;;;;;;5101631;28;20051;-73
2021/12/28 12:02:49;;;;;;;9.15;6.63;;;;;;;;;;5100640;28;19908;-76
2021/12/28 12:05:26;;;;;;;9.25;6.68;;;;;;;;;;5100311;28;20019;-75
2021/12/28 12:08:07;;;;;;;10.50;6.90;;;;;;;;;;5096700;28;20028;-75
2021/12/28 12:10:35;;;;;;;8.65;7.03;;;;;;;;;;5082143;28;20024;-75
2021/12/28 12:13:06;;;;;;;7.40;6.05;;;;;;;;;;5104549;28;20114;-76
2021/12/28 12:15:37;;;;;;;10.50;6.65;;;;;;;;;;5105512;28;20120;-75
2021/12/28 12:18:03;;;;;;;7.65;5.88;;;;;;;;;;5098685;28;20044;-73
2021/12/28 12:20:33;;;;;;;12.10;6.47;;;;;;;;;;5090209;28;20034;-74
2021/12/28 12:23:08;;;;;;;13.45;6.78;;;;;;;;;;5110528;28;20131;-75
2021/12/28 12:25:46;;;;;;;7.78;5.88;;;;;;;;;;5102814;28;20027;-75
2021/12/28 12:28:12;;;;;;;9.93;6.03;;;;;;;;;;5096254;28;20598;-74
2021/12/28 12:30:43;;;;;;;15.63;7.55;;;;;;;;;;5104862;28;20027;-74
2021/12/28 12:33:10;;;;;;;12.95;6.82;;;;;;;;;;5114054;28;20044;-75
2021/12/28 12:35:36;;;;;;;10.23;6.53;;;;;;;;;;5105051;28;20489;-75
2021/12/28 12:38:23;;;;;;;10.65;6.90;;;9.20;99.90;;;;;;5105497;28;20054;-75
2021/12/28 12:40:49;;;;;;;11.02;6.97;;;;;;;;;;5088427;28;20028;-74
2021/12/28 12:43:15;;;;;;;8.00;7.18;;;;;;;;;;5105591;28;20024;-74
2021/12/28 12:45:54;;;;;;;9.93;7.00;;;;;;;;;;5102788;28;20032;-75
2021/12/28 12:48:35;;;;;;;9.65;7.43;;;;;;;;;;5099428;28;20362;-75
2021/12/28 12:51:26;;;;;;;9.05;6.60;;;;;;;;;;5109300;28;20094;-74
2021/12/28 12:54:14;;;;;;;11.30;7.03;;;8.90;99.90;;;;;;5103524;28;20039;-74
2021/12/28 12:56:59;;;;;;;8.93;6.78;;;;;;;;;;5096628;28;20036;-75
2021/12/28 12:59:30;;;;;;;9.60;7.65;;;;;;;;;;5078466;28;20024;-75
2021/12/28 13:01:56;;;;;;;11.25;8.15;;;;;;;;;;5105360;28;20386;-74
2021/12/28 13:04:28;;;;;;;9.13;6.93;;;;;;;;;;5110696;28;20031;-74
2021/12/28 13:07:00;;;;;;;9.10;7.20;;;;;;;;;;5086667;28;20054;-74
2021/12/28 13:09:26;;;;;;;10.45;7.30;;;;;;;;;;5098231;28;20023;-74
2021/12/28 13:11:52;;;;;;;8.98;6.78;;;;;;;;;;5106718;28;20030;-74
2021/12/28 13:14:18;;;;;;;11.15;7.63;;;;;;;;;;5109613;28;20103;-74
2021/12/28 13:16:57;;;;;;;10.13;7.68;;;;;;;;;;5106227;27;20481;-75
2021/12/28 13:19:24;;;;;;;9.82;7.53;;;;;;;;;;5111351;28;20436;-74
2021/12/28 13:22:06;;;;;;;9.38;7.53;;;;;;;;;;5105945;27;20028;-76
2021/12/28 13:24:32;;;;;;;;;;;;;;;;;;5120701;27;20024;-75
2021/12/28 13:26:59;;;;;;;13.43;7.55;;;;;;;;;;5100540;28;19968;-75
2021/12/28 13:29:30;;;;;;;8.10;6.30;;;;;;;;;;5102046;28;20107;-75
2021/12/28 13:32:17;;;;;;;10.68;6.97;;;9.40;99.90;;;;;;5100136;28;20406;-75
2021/12/28 13:35:07;;;;;;;7.90;6.68;;;9.30;99.90;;;;;;5085582;28;20447;-75
2021/12/28 13:37:33;;;;;;;8.63;6.00;;;;;;;;;;5077060;28;20112;-75
2021/12/28 13:40:06;;;;;;;10.55;6.95;;;;;;;;;;5066701;28;20103;-75
2021/12/28 13:42:32;;;;;;;9.77;7.10;;;;;;;;;;5089584;28;20559;-76
2021/12/28 13:44:58;;;;;;;9.60;7.90;;;;;;;;;;5082624;28;20101;-75
2021/12/28 13:47:24;;;;;;;8.68;6.78;;;;;;;;;;5089674;28;20477;-76
2021/12/28 13:50:10;;;;;;;8.95;7.45;;;9.20;99.90;;;;;;5083502;28;20052;-75
2021/12/28 13:52:47;;;;;;;9.45;6.82;;;;;;;;;;5086999;28;20036;-75
2021/12/28 13:55:14;;;;;;;6.40;4.85;;;;;;;;;;5074085;28;20036;-74
2021/12/28 13:57:41;;;;;;;5.80;4.60;;;;;;;;;;5084830;28;20039;-75
2021/12/28 14:00:08;;;;;;;4.82;2.58;;;;;;;;;;5091319;28;20024;-75
2021/12/28 14:02:35;;;;;;;2.60;1.98;;;;;;;;;;5084899;28;20020;-75
2021/12/28 14:05:01;;;;;;;8.45;2.22;;;;;;;;;;5091018;28;20497;-75
2021/12/28 14:07:27;;;;;;;2.63;2.08;;;;;;;;;;5062939;28;20054;-75
2021/12/28 14:09:53;;;;;;;5.80;2.30;;;;;;;;;;5071383;28;20496;-75
2021/12/28 14:12:19;;;;;;;8.10;2.60;;;;;;;;;;5087418;28;20119;-75
2021/12/28 14:14:49;;;;;;;9.48;3.42;;;;;;;;;;5089458;28;20506;-75
2021/12/28 14:17:16;;;;;;;19.73;2.58;;;;;;;;;;5068599;28;20025;-75
2021/12/28 14:19:43;;;;;;;8.85;2.58;;;;;;;;;;5082957;28;20036;-75
2021/12/28 14:22:10;;;;;;;10.40;3.72;;;;;;;;;;5088339;28;20032;-75
2021/12/28 14:24:36;;;;;;;10.95;2.40;;;;;;;;;;5082454;28;20122;-75
2021/12/28 14:27:02;;;;;;;15.10;3.85;;;;;;;;;;5083019;28;20029;-75